createdAt,value
2023-04-18T00:01:36.545Z,9.53
2023-04-18T00:04:03.408Z,9.57
2023-04-18T00:06:30.686Z,9.55
2023-04-18T00:08:58.789Z,9.58
2023-04-18T00:11:25.417Z,9.53
2023-04-18T00:13:52.165Z,9.55
2023-04-18T00:16:18.837Z,9.54
2023-04-18T00:18:45.566Z,9.53
2023-04-18T00:21:12.219Z,9.46
2023-04-18T00:23:39.921Z,9.47
2023-04-18T00:26:07.910Z,9.37
2023-04-18T00:28:34.566Z,9.41
2023-04-18T00:31:01.272Z,9.38
2023-04-18T00:33:27.908Z,9.29
2023-04-18T00:35:54.666Z,9.24
2023-04-18T00:38:21.415Z,9.20
2023-04-18T00:40:48.232Z,9.20
2023-04-18T00:43:16.333Z,9.12
2023-04-18T00:45:43.139Z,9.15
2023-04-18T00:48:11.003Z,9.10
2023-04-18T00:50:37.764Z,9.12
2023-04-18T00:53:05.122Z,9.10
2023-04-18T00:55:31.908Z,9.09
2023-04-18T00:57:58.753Z,9.05
2023-04-18T01:00:27.160Z,9.04
2023-04-18T01:02:54.116Z,9.00
2023-04-18T01:05:21.383Z,8.96
2023-04-18T01:07:48.023Z,8.89
2023-04-18T01:10:14.714Z,8.89
2023-04-18T01:12:41.996Z,8.80
2023-04-18T01:15:09.025Z,8.79
2023-04-18T01:17:37.933Z,8.69
2023-04-18T01:20:06.363Z,8.66
2023-04-18T01:22:33.713Z,8.64
2023-04-18T01:25:06.707Z,8.54
2023-04-18T01:27:33.273Z,8.47
2023-04-18T01:30:00.193Z,8.50
2023-04-18T01:32:29.750Z,8.47
2023-04-18T01:34:56.712Z,8.42
2023-04-18T01:37:23.428Z,8.39
2023-04-18T01:39:50.371Z,8.39
2023-04-18T01:42:20.148Z,8.34
2023-04-18T01:44:46.750Z,8.31
2023-04-18T01:47:13.532Z,8.30
2023-04-18T01:49:40.323Z,8.20
2023-04-18T01:52:07.237Z,8.16
2023-04-18T01:54:34.020Z,8.13
2023-04-18T01:57:00.621Z,8.10
2023-04-18T01:59:28.728Z,8.10
2023-04-18T02:01:57.549Z,8.01
2023-04-18T02:04:24.385Z,7.95
2023-04-18T02:06:50.996Z,7.91
2023-04-18T02:09:17.755Z,7.90
2023-04-18T02:11:44.579Z,7.80
2023-04-18T02:14:11.736Z,7.76
2023-04-18T02:16:40.005Z,7.73
2023-04-18T02:19:06.764Z,7.69
2023-04-18T02:21:34.045Z,7.66
2023-04-18T02:24:00.715Z,7.64
2023-04-18T02:26:27.528Z,7.59
2023-04-18T02:28:57.486Z,7.57
2023-04-18T02:31:24.321Z,7.57
2023-04-18T02:33:52.388Z,7.47
2023-04-18T02:36:21.560Z,7.43
2023-04-18T02:38:48.146Z,7.43
2023-04-18T02:41:14.836Z,7.44
2023-04-18T02:43:41.776Z,7.32
2023-04-18T02:46:08.411Z,7.29
2023-04-18T02:48:35.286Z,7.26
2023-04-18T02:51:04.762Z,7.24
2023-04-18T02:53:34.101Z,7.22
2023-04-18T02:56:01.374Z,7.19
2023-04-18T02:58:44.771Z,7.20
2023-04-18T03:01:26.831Z,7.11
2023-04-18T03:04:07.185Z,7.10
2023-04-18T03:06:39.810Z,7.14
2023-04-18T03:09:06.787Z,7.07
2023-04-18T03:11:36.286Z,7.02
2023-04-18T03:14:03.336Z,7.09
2023-04-18T03:16:39.448Z,7.03
2023-04-18T03:19:07.964Z,6.97
2023-04-18T03:21:34.860Z,6.97
2023-04-18T03:24:02.855Z,7.01
2023-04-18T03:26:29.700Z,6.94
2023-04-18T03:28:57.039Z,6.94
2023-04-18T03:31:24.660Z,6.92
2023-04-18T03:33:51.307Z,6.94
2023-04-18T03:36:18.508Z,6.88
2023-04-18T03:38:45.603Z,6.91
2023-04-18T03:41:13.800Z,6.88
2023-04-18T03:43:41.459Z,6.86
2023-04-18T03:46:08.074Z,6.82
2023-04-18T03:48:35.519Z,6.81
2023-04-18T03:51:06.146Z,6.80
2023-04-18T03:53:33.118Z,6.84
2023-04-18T03:56:00.487Z,6.71
2023-04-18T03:58:42.474Z,6.72
2023-04-18T04:01:09.213Z,6.67
2023-04-18T04:03:37.160Z,6.66
2023-04-18T04:06:05.424Z,6.71
2023-04-18T04:08:33.146Z,6.71
2023-04-18T04:11:00.122Z,6.63
2023-04-18T04:13:27.448Z,6.65
2023-04-18T04:15:56.827Z,6.66
2023-04-18T04:18:23.523Z,6.59
2023-04-18T04:20:50.708Z,6.57
2023-04-18T04:23:32.921Z,6.56
2023-04-18T04:25:59.884Z,6.59
2023-04-18T04:28:37.825Z,6.59
2023-04-18T04:31:08.196Z,6.54
2023-04-18T04:33:36.838Z,6.53
2023-04-18T04:36:07.313Z,6.56
2023-04-18T04:38:33.886Z,6.52
2023-04-18T04:41:00.957Z,6.52
2023-04-18T04:43:28.530Z,6.51
2023-04-18T04:45:56.206Z,6.43
2023-04-18T04:48:25.125Z,6.46
2023-04-18T04:50:54.452Z,6.46
2023-04-18T04:53:21.402Z,6.44
2023-04-18T04:55:48.589Z,6.45
2023-04-18T04:58:17.057Z,6.43
2023-04-18T05:01:03.017Z,6.47
2023-04-18T05:03:33.234Z,6.44
2023-04-18T05:06:00.399Z,6.46
2023-04-18T05:08:26.962Z,6.49
2023-04-18T05:30:38.004Z,6.62
2023-04-18T05:33:05.234Z,6.61
2023-04-18T05:35:32.050Z,6.65
2023-04-18T05:37:58.940Z,6.70
2023-04-18T05:43:24.371Z,6.75
2023-04-18T05:45:52.716Z,6.77
2023-04-18T05:48:19.740Z,6.80
2023-04-18T05:50:46.687Z,6.86
2023-04-18T05:53:18.253Z,6.91
2023-04-18T05:55:45.143Z,6.95
2023-04-18T05:58:11.836Z,7.01
2023-04-18T06:00:38.451Z,7.03
2023-04-18T06:03:08.469Z,7.12
2023-04-18T06:05:36.982Z,7.15
2023-04-18T06:08:03.759Z,7.16
2023-04-18T06:10:30.734Z,7.21
2023-04-18T06:12:57.792Z,7.26
2023-04-18T06:15:24.602Z,7.34
2023-04-18T06:17:52.762Z,7.38
2023-04-18T06:20:21.897Z,7.45
2023-04-18T06:22:48.866Z,7.43
2023-04-18T06:25:16.049Z,7.44
2023-04-18T06:27:42.815Z,7.44
2023-04-18T06:30:10.534Z,7.41
2023-04-18T06:32:37.326Z,7.44
2023-04-18T06:35:04.625Z,7.52
2023-04-18T06:37:32.689Z,7.56
2023-04-18T06:39:59.263Z,7.63
2023-04-18T06:42:26.253Z,7.68
2023-04-18T06:44:54.445Z,7.84
2023-04-18T06:47:22.198Z,7.99
2023-04-18T06:49:51.574Z,8.03
2023-04-18T06:52:27.584Z,8.24
2023-04-18T06:54:55.744Z,8.37
2023-04-18T06:57:22.738Z,8.45
2023-04-18T06:59:55.618Z,8.51
2023-04-18T07:02:22.581Z,8.58
2023-04-18T07:04:49.674Z,8.65
2023-04-18T07:07:16.509Z,8.78
2023-04-18T07:09:43.359Z,8.91
2023-04-18T07:12:13.071Z,9.00
2023-04-18T07:14:39.843Z,9.04
2023-04-18T07:17:06.911Z,9.10
2023-04-18T07:19:33.953Z,9.15
2023-04-18T07:22:01.020Z,9.23
2023-04-18T07:24:30.300Z,9.29
2023-04-18T07:26:57.049Z,9.37
2023-04-18T07:29:25.228Z,9.45
2023-04-18T07:31:52.302Z,9.59
2023-04-18T07:34:19.192Z,9.64
2023-04-18T07:36:45.984Z,9.77
2023-04-18T07:39:12.702Z,9.85
2023-04-18T07:41:39.510Z,9.90
2023-04-18T07:44:07.110Z,9.96
2023-04-18T07:46:38.073Z,10.13
2023-04-18T07:49:05.054Z,10.10
2023-04-18T07:51:32.010Z,10.17
2023-04-18T07:53:59.023Z,10.28
2023-04-18T07:56:25.901Z,10.40
2023-04-18T07:58:53.024Z,10.62
2023-04-18T08:01:20.431Z,10.84
2023-04-18T08:03:48.629Z,11.14
2023-04-18T08:06:15.640Z,11.54
2023-04-18T08:08:42.391Z,11.88
2023-04-18T08:11:09.263Z,12.12
2023-04-18T08:13:37.607Z,12.18
2023-04-18T08:16:04.729Z,12.25
2023-04-18T08:18:31.444Z,12.49
2023-04-18T08:20:59.538Z,13.19
2023-04-18T08:23:26.299Z,13.91
2023-04-18T08:25:53.215Z,15.56
2023-04-18T08:28:20.040Z,16.38
2023-04-18T08:30:46.822Z,18.07
2023-04-18T08:33:13.732Z,19.58
2023-04-18T08:35:40.512Z,18.19
2023-04-18T08:38:11.459Z,17.09
2023-04-18T08:40:38.337Z,17.96
2023-04-18T08:43:07.326Z,19.48
2023-04-18T08:45:36.116Z,18.20
2023-04-18T08:48:03.401Z,16.04
2023-04-18T08:50:33.675Z,15.82
2023-04-18T08:53:01.202Z,14.71
2023-04-18T08:55:29.363Z,14.98
2023-04-18T08:57:56.650Z,15.45
2023-04-18T09:00:23.472Z,16.37
2023-04-18T09:02:50.600Z,15.47
2023-04-18T09:05:18.907Z,14.73
2023-04-18T09:07:46.615Z,15.10
2023-04-18T09:10:13.718Z,14.62
2023-04-18T09:12:44.818Z,14.89
2023-04-18T09:15:15.390Z,14.70
2023-04-18T09:17:43.851Z,14.73
2023-04-18T09:20:12.137Z,14.46
2023-04-18T09:22:46.423Z,14.52
2023-04-18T09:25:24.773Z,15.52
2023-04-18T09:27:53.286Z,15.23
2023-04-18T09:30:38.357Z,14.66
2023-04-18T09:33:09.984Z,14.69
2023-04-18T09:35:37.683Z,14.69
2023-04-18T09:38:04.995Z,14.56
2023-04-18T09:40:32.652Z,14.41
2023-04-18T09:43:16.903Z,14.22
2023-04-18T09:45:47.560Z,14.10
2023-04-18T09:48:14.317Z,13.70
2023-04-18T09:50:41.633Z,13.38
2023-04-18T09:53:08.963Z,13.42
2023-04-18T09:55:40.162Z,12.98
2023-04-18T09:58:09.741Z,13.10
2023-04-18T10:00:42.753Z,13.48
2023-04-18T10:03:12.080Z,13.69
2023-04-18T10:05:40.334Z,13.63
2023-04-18T10:08:08.698Z,13.84
2023-04-18T10:10:38.886Z,13.70
2023-04-18T10:13:09.325Z,13.51
2023-04-18T10:15:42.386Z,13.38
2023-04-18T10:18:16.595Z,13.54
2023-04-18T10:20:43.571Z,13.59
2023-04-18T10:23:37.841Z,14.06
2023-04-18T10:26:07.180Z,14.09
2023-04-18T10:28:51.604Z,14.34
2023-04-18T10:31:19.072Z,14.42
2023-04-18T10:34:00.684Z,14.33
2023-04-18T10:36:31.318Z,14.50
2023-04-18T10:39:00.695Z,14.75
2023-04-18T10:41:28.979Z,15.21
2023-04-18T10:44:16.707Z,15.30
2023-04-18T10:47:18.340Z,14.97
2023-04-18T10:49:54.855Z,14.60
2023-04-18T10:52:21.691Z,14.20
2023-04-18T10:54:52.129Z,13.89
2023-04-18T10:57:18.771Z,13.57
2023-04-18T10:59:49.131Z,13.41
2023-04-18T11:02:24.649Z,13.28
2023-04-18T11:04:52.390Z,13.30
2023-04-18T11:07:19.196Z,13.14
2023-04-18T11:09:52.619Z,13.15
2023-04-18T11:12:19.356Z,13.00
2023-04-18T11:14:49.249Z,13.05
2023-04-18T11:17:20.300Z,13.00
2023-04-18T11:19:47.208Z,13.12
2023-04-18T11:22:14.442Z,13.40
2023-04-18T11:24:41.099Z,13.63
2023-04-18T11:27:09.870Z,13.66
2023-04-18T11:29:36.567Z,13.78
2023-04-18T11:32:07.868Z,13.78
2023-04-18T11:34:34.964Z,13.93
2023-04-18T11:37:02.112Z,14.00
2023-04-18T11:39:28.914Z,14.82
2023-04-18T11:41:55.622Z,15.23
2023-04-18T11:44:23.932Z,16.38
2023-04-18T11:46:50.523Z,17.37
2023-04-18T11:49:29.626Z,18.63
2023-04-18T11:51:56.509Z,18.65
2023-04-18T11:54:36.822Z,19.34
2023-04-18T11:57:03.569Z,18.52
2023-04-18T11:59:30.391Z,17.63
2023-04-18T12:02:14.904Z,16.94
2023-04-18T12:04:59.092Z,16.45
2023-04-18T12:07:34.548Z,15.89
2023-04-18T12:10:01.227Z,15.20
2023-04-18T12:12:27.911Z,14.84
2023-04-18T12:15:02.606Z,14.75
2023-04-18T12:17:30.308Z,14.45
2023-04-18T12:20:01.187Z,14.26
2023-04-18T12:22:38.471Z,14.15
2023-04-18T12:25:13.100Z,14.10
2023-04-18T12:27:54.748Z,14.05
2023-04-18T12:30:22.407Z,13.88
2023-04-18T12:32:50.698Z,13.83
2023-04-18T12:35:20.367Z,14.01
2023-04-18T12:37:47.879Z,14.12
2023-04-18T12:40:15.547Z,14.19
2023-04-18T12:42:42.582Z,14.19
2023-04-18T12:45:10.573Z,14.34
2023-04-18T12:47:38.233Z,14.57
2023-04-18T12:50:06.521Z,14.59
2023-04-18T12:52:38.031Z,14.53
2023-04-18T12:55:05.599Z,14.51
2023-04-18T12:57:32.386Z,14.27
2023-04-18T12:59:59.413Z,14.17
2023-04-18T13:02:26.321Z,14.10
2023-04-18T13:04:52.957Z,14.02
2023-04-18T13:07:19.728Z,13.89
2023-04-18T13:09:48.106Z,13.92
2023-04-18T13:12:14.757Z,13.95
2023-04-18T13:14:42.156Z,14.02
2023-04-18T13:17:08.929Z,13.98
2023-04-18T13:19:35.476Z,14.16
2023-04-18T13:22:02.142Z,14.39
2023-04-18T13:24:28.979Z,14.41
2023-04-18T13:26:56.920Z,14.41
2023-04-18T13:29:23.460Z,14.34
2023-04-18T13:31:50.012Z,14.31
2023-04-18T13:34:16.640Z,14.16
2023-04-18T13:36:43.212Z,14.03
2023-04-18T13:39:10.272Z,13.91
2023-04-18T13:41:37.143Z,13.91
2023-04-18T13:44:05.067Z,13.83
2023-04-18T13:46:31.794Z,13.86
2023-04-18T13:48:58.390Z,13.85
2023-04-18T13:51:25.345Z,14.30
2023-04-18T13:53:51.913Z,15.79
2023-04-18T13:56:18.734Z,17.87
2023-04-18T13:58:45.318Z,19.97
2023-04-18T14:01:13.335Z,21.54
2023-04-18T14:03:43.070Z,21.83
2023-04-18T14:06:10.435Z,20.76
2023-04-18T14:08:36.970Z,19.24
2023-04-18T14:11:03.581Z,18.23
2023-04-18T14:13:30.546Z,17.33
2023-04-18T14:15:57.145Z,16.74
2023-04-18T14:18:25.155Z,16.27
2023-04-18T14:20:51.817Z,16.04
2023-04-18T14:23:18.375Z,16.11
2023-04-18T14:25:44.908Z,16.53
2023-04-18T14:28:12.152Z,17.80
2023-04-18T14:30:39.957Z,19.37
2023-04-18T14:33:07.279Z,20.49
2023-04-18T14:35:35.514Z,21.67
2023-04-18T14:38:02.170Z,21.54
2023-04-18T14:40:30.388Z,20.49
2023-04-18T14:42:58.143Z,19.59
2023-04-18T14:45:24.832Z,18.66
2023-04-18T14:47:51.511Z,17.82
2023-04-18T14:50:18.358Z,17.45
2023-04-18T14:52:46.421Z,18.28
2023-04-18T14:55:13.124Z,19.64
2023-04-18T14:57:39.747Z,20.69
2023-04-18T15:00:08.704Z,21.30
2023-04-18T15:02:35.556Z,20.62
2023-04-18T15:05:03.036Z,20.03
2023-04-18T15:07:30.267Z,19.14
2023-04-18T15:09:58.245Z,19.08
2023-04-18T15:12:24.898Z,19.46
2023-04-18T15:14:51.541Z,20.08
2023-04-18T15:17:18.185Z,20.50
2023-04-18T15:19:44.748Z,20.75
2023-04-18T15:22:11.464Z,21.11
2023-04-18T15:24:38.069Z,20.94
2023-04-18T15:27:06.106Z,21.02
2023-04-18T15:29:32.774Z,20.68
2023-04-18T15:31:59.492Z,20.40
2023-04-18T15:34:26.169Z,19.82
2023-04-18T15:36:52.735Z,19.36
2023-04-18T15:39:19.346Z,19.26
2023-04-18T15:41:45.958Z,19.15
2023-04-18T15:44:14.106Z,19.14
2023-04-18T15:46:41.123Z,19.09
2023-04-18T15:49:07.732Z,18.68
2023-04-18T15:51:34.342Z,18.39
2023-04-18T15:54:01.055Z,18.45
2023-04-18T15:56:27.706Z,18.11
2023-04-18T15:58:56.006Z,18.00
2023-04-18T16:01:24.083Z,17.91
2023-04-18T16:03:50.698Z,17.99
2023-04-18T16:06:19.754Z,17.97
2023-04-18T16:08:46.395Z,18.06
2023-04-18T16:11:13.006Z,17.91
2023-04-18T16:13:39.597Z,17.59
2023-04-18T16:16:06.707Z,17.43
2023-04-18T16:18:34.769Z,17.29
2023-04-18T16:21:01.649Z,17.21
2023-04-18T16:23:30.850Z,17.08
2023-04-18T16:25:57.472Z,16.80
2023-04-18T16:28:24.148Z,16.81
2023-04-18T16:30:51.342Z,16.69
2023-04-18T16:33:19.127Z,16.50
2023-04-18T16:35:47.174Z,16.39
2023-04-18T16:38:13.835Z,16.26
2023-04-18T16:40:40.457Z,16.04
2023-04-18T16:43:07.222Z,16.09
2023-04-18T16:45:33.797Z,16.05
2023-04-18T16:48:00.520Z,16.07
2023-04-18T16:50:27.170Z,16.11
2023-04-18T16:52:55.266Z,16.09
2023-04-18T16:55:22.080Z,15.95
2023-04-18T16:57:48.680Z,15.90
2023-04-18T17:00:15.710Z,15.90
2023-04-18T17:02:42.911Z,15.82
2023-04-18T17:05:10.077Z,15.76
2023-04-18T17:07:36.738Z,15.75
2023-04-18T17:10:06.087Z,15.72
2023-04-18T17:12:33.121Z,15.72
2023-04-18T17:14:59.687Z,15.69
2023-04-18T17:17:26.345Z,15.56
2023-04-18T17:19:52.912Z,15.48
2023-04-18T17:22:19.581Z,15.42
2023-04-18T17:24:46.168Z,15.31
2023-04-18T17:27:14.101Z,15.23
2023-04-18T17:29:40.655Z,15.22
2023-04-18T17:32:07.421Z,15.18
2023-04-18T17:34:34.201Z,15.08
2023-04-18T17:37:00.850Z,15.02
2023-04-18T17:39:27.619Z,14.93
2023-04-18T17:41:54.789Z,14.82
2023-04-18T17:44:22.740Z,14.65
2023-04-18T17:46:50.510Z,14.61
2023-04-18T17:49:17.481Z,14.48
2023-04-18T17:51:44.143Z,14.36
2023-04-18T17:54:10.804Z,14.31
2023-04-18T17:56:37.487Z,14.21
2023-04-18T17:59:04.081Z,14.09
2023-04-18T18:01:32.068Z,13.98
2023-04-18T18:03:58.843Z,13.92
2023-04-18T18:06:25.500Z,13.84
2023-04-18T18:08:52.039Z,13.79
2023-04-18T18:11:18.607Z,13.68
2023-04-18T18:13:45.120Z,13.64
2023-04-18T18:16:12.051Z,13.57
2023-04-18T18:18:40.097Z,13.50
2023-04-18T18:21:06.726Z,13.41
2023-04-18T18:23:33.363Z,13.38
2023-04-18T18:26:00.309Z,13.26
2023-04-18T18:28:26.826Z,13.18
2023-04-18T18:30:53.743Z,13.14
2023-04-18T18:33:20.531Z,13.12
2023-04-18T18:35:48.473Z,12.98
2023-04-18T18:38:15.135Z,12.96
2023-04-18T18:40:41.717Z,12.89
2023-04-18T18:43:08.333Z,12.88
2023-04-18T18:45:34.901Z,12.76
2023-04-18T18:48:01.504Z,12.72
2023-04-18T18:50:28.129Z,12.69
2023-04-18T18:52:56.123Z,12.62
2023-04-18T18:55:23.013Z,12.61
2023-04-18T18:57:49.753Z,12.55
2023-04-18T19:00:16.613Z,12.51
2023-04-18T19:02:43.353Z,12.51
2023-04-18T19:05:10.354Z,12.43
2023-04-18T19:07:37.051Z,12.45
2023-04-18T19:10:06.595Z,12.37
2023-04-18T19:12:33.232Z,12.31
2023-04-18T19:14:59.934Z,12.26
2023-04-18T19:17:26.642Z,12.22
2023-04-18T19:19:53.282Z,12.13
2023-04-18T19:22:19.923Z,12.15
2023-04-18T19:24:46.576Z,12.12
2023-04-18T19:27:14.573Z,12.07
2023-04-18T19:29:41.266Z,12.05
2023-04-18T19:32:07.887Z,11.99
2023-04-18T19:34:34.537Z,11.96
2023-04-18T19:37:01.207Z,11.99
2023-04-18T19:39:28.270Z,11.93
2023-04-18T19:41:54.877Z,11.92
2023-04-18T19:44:22.831Z,11.86
2023-04-18T19:46:49.391Z,11.86
2023-04-18T19:49:16.206Z,11.79
2023-04-18T19:51:43.029Z,11.73
2023-04-18T19:54:09.666Z,11.68
2023-04-18T19:56:36.282Z,11.66
2023-04-18T19:59:02.887Z,11.64
2023-04-18T20:01:30.809Z,11.58
2023-04-18T20:03:57.686Z,11.51
2023-04-18T20:06:24.454Z,11.50
2023-04-18T20:08:50.966Z,11.47
2023-04-18T20:11:17.590Z,11.46
2023-04-18T20:13:44.279Z,11.43
2023-04-18T20:16:11.389Z,11.37
2023-04-18T20:18:41.127Z,11.38
2023-04-18T20:21:09.931Z,11.32
2023-04-18T20:23:37.038Z,11.30
2023-04-18T20:26:03.969Z,11.26
2023-04-18T20:28:30.630Z,11.22
2023-04-18T20:30:57.330Z,11.19
2023-04-18T20:33:23.976Z,11.17
2023-04-18T20:35:51.934Z,11.16
2023-04-18T20:38:18.557Z,11.12
2023-04-18T20:40:45.165Z,11.10
2023-04-18T20:43:11.695Z,11.11
2023-04-18T20:45:38.300Z,11.03
2023-04-18T20:48:05.068Z,11.02
2023-04-18T20:50:31.683Z,10.99
2023-04-18T20:52:59.575Z,10.95
2023-04-18T20:55:26.131Z,10.92
2023-04-18T20:57:52.745Z,10.91
2023-04-18T21:00:19.651Z,10.90
2023-04-18T21:02:46.354Z,10.86
2023-04-18T21:05:13.020Z,10.85
2023-04-18T21:07:39.656Z,10.82
2023-04-18T21:10:08.487Z,10.78
2023-04-18T21:12:35.331Z,10.75
2023-04-18T21:15:02.309Z,10.72
2023-04-18T21:17:28.859Z,10.68
2023-04-18T21:19:55.531Z,10.65
2023-04-18T21:22:22.231Z,10.64
2023-04-18T21:24:48.792Z,10.64
2023-04-18T21:27:16.718Z,10.60
2023-04-18T21:29:43.254Z,10.59
2023-04-18T21:32:09.819Z,10.60
2023-04-18T21:34:36.357Z,10.58
2023-04-18T21:37:02.945Z,10.59
2023-04-18T21:39:29.567Z,10.54
2023-04-18T21:41:56.151Z,10.51
2023-04-18T21:44:24.090Z,10.47
2023-04-18T21:46:51.393Z,10.42
2023-04-18T21:49:17.989Z,10.41
2023-04-18T21:51:44.585Z,10.38
2023-04-18T21:54:11.222Z,10.38
2023-04-18T21:56:37.895Z,10.37
2023-04-18T21:59:04.468Z,10.36
2023-04-18T22:01:32.544Z,10.35
2023-04-18T22:03:59.385Z,10.31
2023-04-18T22:06:26.055Z,10.34
2023-04-18T22:08:52.927Z,10.30
2023-04-18T22:11:19.591Z,10.28
2023-04-18T22:13:46.207Z,10.25
2023-04-18T22:16:12.825Z,10.27
2023-04-18T22:18:40.760Z,10.31
2023-04-18T22:21:07.512Z,10.34
2023-04-18T22:23:34.081Z,10.37
2023-04-18T22:26:00.771Z,10.40
2023-04-18T22:28:27.518Z,10.42
2023-04-18T22:30:54.199Z,10.49
2023-04-18T22:33:20.969Z,10.55
2023-04-18T22:35:49.024Z,10.57
2023-04-18T22:38:15.737Z,10.62
2023-04-18T22:40:42.444Z,10.67
2023-04-18T22:43:09.083Z,10.69
2023-04-18T22:45:35.640Z,10.70
2023-04-18T22:48:02.241Z,10.77
2023-04-18T22:50:28.824Z,10.79
2023-04-18T22:52:56.816Z,10.81
2023-04-18T22:55:24.040Z,10.84
2023-04-18T22:57:50.668Z,10.89
2023-04-18T23:00:17.613Z,10.93
2023-04-18T23:02:44.448Z,10.96
2023-04-18T23:05:11.161Z,11.03
2023-04-18T23:07:37.792Z,11.06
2023-04-18T23:10:07.663Z,11.07
2023-04-18T23:12:34.259Z,11.10
2023-04-18T23:15:00.783Z,11.12
2023-04-18T23:17:27.353Z,11.13
2023-04-18T23:19:53.905Z,11.15
2023-04-18T23:22:20.487Z,11.16
2023-04-18T23:24:47.036Z,11.15
2023-04-18T23:27:15.173Z,11.15
2023-04-18T23:29:42.477Z,11.15
2023-04-18T23:32:09.168Z,11.15
2023-04-18T23:34:35.660Z,11.18
2023-04-18T23:37:02.336Z,11.17
2023-04-18T23:39:28.953Z,11.19
2023-04-18T23:41:55.553Z,11.21
2023-04-18T23:44:23.622Z,11.22
2023-04-18T23:46:50.302Z,11.23
2023-04-18T23:49:16.960Z,11.23
2023-04-18T23:51:43.570Z,11.27
2023-04-18T23:54:10.221Z,11.25
2023-04-18T23:56:36.756Z,11.29
2023-04-18T23:59:03.289Z,11.29
